CheckWX is a tool to help pilots better visualize weather data.  It is not intended as a substitute for an official pre-flight weather briefing.

20:02:21 UTC

KSCX METAR
Scott Municipal Airport
Oneida, Tennessee, USA
Current

27 mins ago

KSCX 261935Z AUTO 23010G20KT 10SM CLR 30/16 A3012 RMK A01
Observed
May-26 @ 19:35 UTC
Wind
  • 230° at 10 KTS
  • Gusting to 20 KTS
Visibility
10 SM
Flight Rules
VFR
Cloud Levels
  • Clear skies
Temperature
30°C / 86°F
Dewpoint
16°C / 61°F
Heat Index
30°C / 86°F
Humidity
43%
Altimeter
30.12" Hg
Pressure
1020.02 hPa
Previous

47 mins ago

KSCX 261915Z AUTO 23012KT 10SM CLR 30/16 A3012 RMK A01
Observed
May-26 @ 19:15 UTC
Wind
  • 230° at 12 KTS
Visibility
10 SM
Flight Rules
VFR
Cloud Levels
  • Clear skies
Temperature
30°C / 86°F
Dewpoint
16°C / 61°F
Heat Index
30°C / 86°F
Humidity
43%
Altimeter
30.12" Hg
Pressure
1020.02 hPa
Previous

1 hour ago

KSCX 261855Z AUTO 23009G15KT 10SM FEW065 30/17 A3013 RMK A01
Observed
May-26 @ 18:55 UTC
Wind
  • 230° at 9 KTS
  • Gusting to 15 KTS
Visibility
10 SM
Flight Rules
VFR
Cloud Levels
  • Few at 6,500' AGL
Temperature
30°C / 86°F
Dewpoint
17°C / 63°F
Heat Index
31°C / 87°F
Humidity
46%
Altimeter
30.13" Hg
Pressure
1020.32 hPa